sensor_id;sensor_type;location;lat;lon;timestamp;temperature;humidity
67364;HTU21D;54250;45.572;38.086;2023-07-31T00:00:33;19.72;95.45
67364;HTU21D;54250;45.572;38.086;2023-07-31T00:02:59;19.72;95.55
67364;HTU21D;54250;45.572;38.086;2023-07-31T00:05:25;19.74;95.46
67364;HTU21D;54250;45.572;38.086;2023-07-31T00:07:51;19.77;95.46
67364;HTU21D;54250;45.572;38.086;2023-07-31T00:10:17;19.75;95.45
67364;HTU21D;54250;45.572;38.086;2023-07-31T00:12:44;19.70;95.63
67364;HTU21D;54250;45.572;38.086;2023-07-31T00:15:10;19.73;95.71
67364;HTU21D;54250;45.572;38.086;2023-07-31T00:17:37;19.75;95.62
67364;HTU21D;54250;45.572;38.086;2023-07-31T00:20:03;19.70;95.73
67364;HTU21D;54250;45.572;38.086;2023-07-31T00:22:29;19.65;95.84
67364;HTU21D;54250;45.572;38.086;2023-07-31T00:24:56;19.57;95.97
67364;HTU21D;54250;45.572;38.086;2023-07-31T00:27:22;19.48;96.15
67364;HTU21D;54250;45.572;38.086;2023-07-31T00:29:49;19.44;96.24
67364;HTU21D;54250;45.572;38.086;2023-07-31T00:32:15;19.40;96.27
67364;HTU21D;54250;45.572;38.086;2023-07-31T00:34:41;19.39;96.13
67364;HTU21D;54250;45.572;38.086;2023-07-31T00:37:07;19.39;95.97
67364;HTU21D;54250;45.572;38.086;2023-07-31T00:39:34;19.39;96.01
67364;HTU21D;54250;45.572;38.086;2023-07-31T00:42:01;19.39;96.07
67364;HTU21D;54250;45.572;38.086;2023-07-31T00:44:27;19.40;96.05
67364;HTU21D;54250;45.572;38.086;2023-07-31T00:46:54;19.40;96.09
67364;HTU21D;54250;45.572;38.086;2023-07-31T00:49:22;19.37;96.13
67364;HTU21D;54250;45.572;38.086;2023-07-31T00:51:48;19.30;96.33
67364;HTU21D;54250;45.572;38.086;2023-07-31T00:54:14;19.26;96.35
67364;HTU21D;54250;45.572;38.086;2023-07-31T00:56:41;19.23;96.46
67364;HTU21D;54250;45.572;38.086;2023-07-31T00:59:08;19.20;96.47
67364;HTU21D;54250;45.572;38.086;2023-07-31T01:01:33;19.17;96.50
67364;HTU21D;54250;45.572;38.086;2023-07-31T01:03:59;19.15;96.51
67364;HTU21D;54250;45.572;38.086;2023-07-31T01:10:07;19.14;96.23
67364;HTU21D;54250;45.572;38.086;2023-07-31T01:12:34;19.18;96.18
67364;HTU21D;54250;45.572;38.086;2023-07-31T01:15:08;19.20;96.19
67364;HTU21D;54250;45.572;38.086;2023-07-31T01:17:43;19.15;96.34
67364;HTU21D;54250;45.572;38.086;2023-07-31T01:20:18;19.14;96.41
67364;HTU21D;54250;45.572;38.086;2023-07-31T01:28:14;19.15;96.35
67364;HTU21D;54250;45.572;38.086;2023-07-31T01:30:44;19.23;96.31
67364;HTU21D;54250;45.572;38.086;2023-07-31T01:33:11;19.31;96.20
67364;HTU21D;54250;45.572;38.086;2023-07-31T01:35:37;19.42;96.05
67364;HTU21D;54250;45.572;38.086;2023-07-31T01:38:07;19.50;95.99
67364;HTU21D;54250;45.572;38.086;2023-07-31T01:40:33;19.59;95.81
67364;HTU21D;54250;45.572;38.086;2023-07-31T01:42:59;19.68;95.71
67364;HTU21D;54250;45.572;38.086;2023-07-31T01:45:24;19.74;95.68
67364;HTU21D;54250;45.572;38.086;2023-07-31T01:47:50;19.75;95.76
67364;HTU21D;54250;45.572;38.086;2023-07-31T01:50:16;19.72;95.95
67364;HTU21D;54250;45.572;38.086;2023-07-31T01:52:42;19.72;96.13
67364;HTU21D;54250;45.572;38.086;2023-07-31T01:55:08;19.72;96.10
67364;HTU21D;54250;45.572;38.086;2023-07-31T01:57:36;19.71;96.21
67364;HTU21D;54250;45.572;38.086;2023-07-31T02:00:02;19.77;96.10
67364;HTU21D;54250;45.572;38.086;2023-07-31T02:02:37;19.77;96.04
67364;HTU21D;54250;45.572;38.086;2023-07-31T02:05:04;19.77;96.15
67364;HTU21D;54250;45.572;38.086;2023-07-31T02:07:30;19.79;96.06
67364;HTU21D;54250;45.572;38.086;2023-07-31T02:09:55;19.81;96.05
67364;HTU21D;54250;45.572;38.086;2023-07-31T02:12:21;19.81;96.01
67364;HTU21D;54250;45.572;38.086;2023-07-31T02:14:47;19.84;95.92
67364;HTU21D;54250;45.572;38.086;2023-07-31T02:17:13;19.86;95.91
67364;HTU21D;54250;45.572;38.086;2023-07-31T02:19:39;19.86;95.88
67364;HTU21D;54250;45.572;38.086;2023-07-31T02:22:05;19.84;95.97
67364;HTU21D;54250;45.572;38.086;2023-07-31T02:24:31;19.82;95.92
67364;HTU21D;54250;45.572;38.086;2023-07-31T02:26:57;19.77;96.02
67364;HTU21D;54250;45.572;38.086;2023-07-31T02:29:23;19.75;96.11
67364;HTU21D;54250;45.572;38.086;2023-07-31T02:31:49;19.74;96.20
67364;HTU21D;54250;45.572;38.086;2023-07-31T02:34:15;19.69;96.39
67364;HTU21D;54250;45.572;38.086;2023-07-31T02:36:41;19.67;96.50
67364;HTU21D;54250;45.572;38.086;2023-07-31T02:39:07;19.68;96.54
67364;HTU21D;54250;45.572;38.086;2023-07-31T02:41:33;19.66;96.55
67364;HTU21D;54250;45.572;38.086;2023-07-31T02:43:59;19.61;96.68
67364;HTU21D;54250;45.572;38.086;2023-07-31T02:46:26;19.60;96.78
67364;HTU21D;54250;45.572;38.086;2023-07-31T02:48:52;19.60;96.84
67364;HTU21D;54250;45.572;38.086;2023-07-31T02:51:18;19.63;96.89
67364;HTU21D;54250;45.572;38.086;2023-07-31T02:53:44;19.67;96.86
67364;HTU21D;54250;45.572;38.086;2023-07-31T02:56:09;19.80;96.86
67364;HTU21D;54250;45.572;38.086;2023-07-31T02:58:35;20.44;95.75
67364;HTU21D;54250;45.572;38.086;2023-07-31T03:01:01;21.23;93.69
67364;HTU21D;54250;45.572;38.086;2023-07-31T03:03:27;21.84;92.40
67364;HTU21D;54250;45.572;38.086;2023-07-31T03:05:53;22.10;92.61
67364;HTU21D;54250;45.572;38.086;2023-07-31T03:08:19;22.52;92.11
67364;HTU21D;54250;45.572;38.086;2023-07-31T03:10:45;22.91;91.16
67364;HTU21D;54250;45.572;38.086;2023-07-31T03:13:11;23.26;90.27
67364;HTU21D;54250;45.572;38.086;2023-07-31T03:15:37;23.41;90.41
67364;HTU21D;54250;45.572;38.086;2023-07-31T03:18:02;23.66;90.17
67364;HTU21D;54250;45.572;38.086;2023-07-31T03:20:28;23.96;89.55
67364;HTU21D;54250;45.572;38.086;2023-07-31T03:22:54;24.50;88.07
67364;HTU21D;54250;45.572;38.086;2023-07-31T03:25:20;25.33;85.40
67364;HTU21D;54250;45.572;38.086;2023-07-31T03:27:46;26.18;82.55
67364;HTU21D;54250;45.572;38.086;2023-07-31T03:30:12;26.94;80.06
67364;HTU21D;54250;45.572;38.086;2023-07-31T03:32:38;27.74;77.58
67364;HTU21D;54250;45.572;38.086;2023-07-31T03:35:04;28.71;74.41
67364;HTU21D;54250;45.572;38.086;2023-07-31T03:37:31;29.66;71.36
67364;HTU21D;54250;45.572;38.086;2023-07-31T03:39:57;30.44;69.53
67364;HTU21D;54250;45.572;38.086;2023-07-31T03:42:23;31.30;67.10
67364;HTU21D;54250;45.572;38.086;2023-07-31T03:44:50;32.07;64.53
67364;HTU21D;54250;45.572;38.086;2023-07-31T03:47:16;32.75;62.77
67364;HTU21D;54250;45.572;38.086;2023-07-31T03:49:42;33.34;60.83
67364;HTU21D;54250;45.572;38.086;2023-07-31T03:52:08;33.60;59.87
67364;HTU21D;54250;45.572;38.086;2023-07-31T03:54:34;33.75;59.32
67364;HTU21D;54250;45.572;38.086;2023-07-31T03:57:00;34.23;57.61
67364;HTU21D;54250;45.572;38.086;2023-07-31T03:59:26;34.61;56.38
67364;HTU21D;54250;45.572;38.086;2023-07-31T04:01:52;35.20;55.33
67364;HTU21D;54250;45.572;38.086;2023-07-31T04:04:17;35.92;53.26
67364;HTU21D;54250;45.572;38.086;2023-07-31T04:06:43;36.52;52.10
67364;HTU21D;54250;45.572;38.086;2023-07-31T04:09:10;37.20;50.73
67364;HTU21D;54250;45.572;38.086;2023-07-31T04:11:35;37.91;48.73
67364;HTU21D;54250;45.572;38.086;2023-07-31T04:14:01;38.22;47.44
67364;HTU21D;54250;45.572;38.086;2023-07-31T04:16:27;38.34;46.77
67364;HTU21D;54250;45.572;38.086;2023-07-31T04:18:53;38.61;45.75
67364;HTU21D;54250;45.572;38.086;2023-07-31T04:21:19;38.88;44.93
67364;HTU21D;54250;45.572;38.086;2023-07-31T04:23:45;39.41;43.87
67364;HTU21D;54250;45.572;38.086;2023-07-31T04:26:11;39.62;43.14
67364;HTU21D;54250;45.572;38.086;2023-07-31T04:28:37;39.82;42.39
67364;HTU21D;54250;45.572;38.086;2023-07-31T04:31:03;39.57;42.93
67364;HTU21D;54250;45.572;38.086;2023-07-31T04:33:29;39.52;42.52
67364;HTU21D;54250;45.572;38.086;2023-07-31T04:35:55;39.48;42.21
67364;HTU21D;54250;45.572;38.086;2023-07-31T04:38:21;39.85;41.13
67364;HTU21D;54250;45.572;38.086;2023-07-31T04:40:47;40.53;39.67
67364;HTU21D;54250;45.572;38.086;2023-07-31T04:43:13;41.41;38.76
67364;HTU21D;54250;45.572;38.086;2023-07-31T04:45:44;42.11;36.29
67364;HTU21D;54250;45.572;38.086;2023-07-31T04:48:11;42.29;37.05
67364;HTU21D;54250;45.572;38.086;2023-07-31T04:50:37;42.83;36.42
67364;HTU21D;54250;45.572;38.086;2023-07-31T04:53:03;43.39;35.81
67364;HTU21D;54250;45.572;38.086;2023-07-31T04:55:29;43.85;34.25
67364;HTU21D;54250;45.572;38.086;2023-07-31T04:57:55;43.43;34.28
67364;HTU21D;54250;45.572;38.086;2023-07-31T05:00:21;43.10;34.18
67364;HTU21D;54250;45.572;38.086;2023-07-31T05:02:47;42.68;34.07
67364;HTU21D;54250;45.572;38.086;2023-07-31T05:05:12;42.62;34.28
67364;HTU21D;54250;45.572;38.086;2023-07-31T05:07:38;43.52;33.09
67364;HTU21D;54250;45.572;38.086;2023-07-31T05:10:05;44.11;31.94
67364;HTU21D;54250;45.572;38.086;2023-07-31T05:12:31;44.86;31.05
67364;HTU21D;54250;45.572;38.086;2023-07-31T05:14:56;44.94;30.92
67364;HTU21D;54250;45.572;38.086;2023-07-31T05:17:22;44.21;31.26
67364;HTU21D;54250;45.572;38.086;2023-07-31T05:19:48;44.17;31.57
67364;HTU21D;54250;45.572;38.086;2023-07-31T05:22:14;44.41;31.42
67364;HTU21D;54250;45.572;38.086;2023-07-31T05:24:40;45.17;29.90
67364;HTU21D;54250;45.572;38.086;2023-07-31T05:27:06;44.98;29.74
67364;HTU21D;54250;45.572;38.086;2023-07-31T05:29:32;45.45;29.34
67364;HTU21D;54250;45.572;38.086;2023-07-31T05:31:58;46.01;28.61
67364;HTU21D;54250;45.572;38.086;2023-07-31T05:34:24;46.34;28.03
67364;HTU21D;54250;45.572;38.086;2023-07-31T05:36:50;46.39;27.52
67364;HTU21D;54250;45.572;38.086;2023-07-31T05:39:16;45.50;28.27
67364;HTU21D;54250;45.572;38.086;2023-07-31T05:41:42;45.14;28.80
67364;HTU21D;54250;45.572;38.086;2023-07-31T05:44:07;45.55;28.16
67364;HTU21D;54250;45.572;38.086;2023-07-31T05:46:33;45.79;27.79
67364;HTU21D;54250;45.572;38.086;2023-07-31T05:48:59;46.23;27.65
67364;HTU21D;54250;45.572;38.086;2023-07-31T05:51:26;46.81;26.42
67364;HTU21D;54250;45.572;38.086;2023-07-31T05:53:53;46.43;26.81
67364;HTU21D;54250;45.572;38.086;2023-07-31T05:56:19;45.94;27.26
67364;HTU21D;54250;45.572;38.086;2023-07-31T05:58:45;45.71;27.52
67364;HTU21D;54250;45.572;38.086;2023-07-31T06:01:11;46.07;26.68
67364;HTU21D;54250;45.572;38.086;2023-07-31T06:03:36;45.43;27.58
67364;HTU21D;54250;45.572;38.086;2023-07-31T06:06:04;45.32;27.55
67364;HTU21D;54250;45.572;38.086;2023-07-31T06:08:31;45.54;27.05
67364;HTU21D;54250;45.572;38.086;2023-07-31T06:10:56;45.50;26.81
67364;HTU21D;54250;45.572;38.086;2023-07-31T06:13:22;45.75;26.96
67364;HTU21D;54250;45.572;38.086;2023-07-31T06:15:48;46.16;26.44
67364;HTU21D;54250;45.572;38.086;2023-07-31T06:18:14;46.34;26.39
67364;HTU21D;54250;45.572;38.086;2023-07-31T06:20:40;46.16;26.25
67364;HTU21D;54250;45.572;38.086;2023-07-31T06:23:06;46.68;25.89
67364;HTU21D;54250;45.572;38.086;2023-07-31T06:25:32;47.16;25.43
67364;HTU21D;54250;45.572;38.086;2023-07-31T06:27:58;47.41;25.43
67364;HTU21D;54250;45.572;38.086;2023-07-31T06:30:24;47.78;24.93
67364;HTU21D;54250;45.572;38.086;2023-07-31T06:32:50;48.28;24.05
67364;HTU21D;54250;45.572;38.086;2023-07-31T06:35:16;48.72;24.18
67364;HTU21D;54250;45.572;38.086;2023-07-31T06:37:42;48.76;23.68
67364;HTU21D;54250;45.572;38.086;2023-07-31T06:40:10;48.93;23.81
67364;HTU21D;54250;45.572;38.086;2023-07-31T06:42:36;49.47;23.10
67364;HTU21D;54250;45.572;38.086;2023-07-31T06:45:02;49.91;22.54
67364;HTU21D;54250;45.572;38.086;2023-07-31T06:47:28;49.95;22.24
67364;HTU21D;54250;45.572;38.086;2023-07-31T06:49:55;49.54;22.65
67364;HTU21D;54250;45.572;38.086;2023-07-31T06:52:21;49.40;22.41
67364;HTU21D;54250;45.572;38.086;2023-07-31T06:55:01;49.65;22.56
67364;HTU21D;54250;45.572;38.086;2023-07-31T06:57:28;50.09;21.89
67364;HTU21D;54250;45.572;38.086;2023-07-31T06:59:54;49.92;21.93
67364;HTU21D;54250;45.572;38.086;2023-07-31T07:02:20;50.15;21.62
67364;HTU21D;54250;45.572;38.086;2023-07-31T07:04:45;50.10;21.65
67364;HTU21D;54250;45.572;38.086;2023-07-31T07:07:11;50.26;21.38
67364;HTU21D;54250;45.572;38.086;2023-07-31T07:09:37;49.83;21.66
67364;HTU21D;54250;45.572;38.086;2023-07-31T07:12:04;50.04;22.33
67364;HTU21D;54250;45.572;38.086;2023-07-31T07:14:30;50.64;21.97
67364;HTU21D;54250;45.572;38.086;2023-07-31T07:16:55;50.12;21.24
67364;HTU21D;54250;45.572;38.086;2023-07-31T07:19:21;49.08;21.78
67364;HTU21D;54250;45.572;38.086;2023-07-31T07:21:47;48.60;21.79
67364;HTU21D;54250;45.572;38.086;2023-07-31T07:24:13;48.15;22.76
67364;HTU21D;54250;45.572;38.086;2023-07-31T07:26:39;48.89;21.66
67364;HTU21D;54250;45.572;38.086;2023-07-31T07:29:05;49.47;21.46
67364;HTU21D;54250;45.572;38.086;2023-07-31T07:31:33;48.75;22.18
67364;HTU21D;54250;45.572;38.086;2023-07-31T07:33:59;48.85;22.23
67364;HTU21D;54250;45.572;38.086;2023-07-31T07:36:28;49.46;22.10
67364;HTU21D;54250;45.572;38.086;2023-07-31T07:38:54;49.50;21.63
67364;HTU21D;54250;45.572;38.086;2023-07-31T07:41:20;49.45;21.98
67364;HTU21D;54250;45.572;38.086;2023-07-31T07:43:46;49.85;21.66
67364;HTU21D;54250;45.572;38.086;2023-07-31T07:46:11;50.77;20.79
67364;HTU21D;54250;45.572;38.086;2023-07-31T07:48:37;50.96;20.45
67364;HTU21D;54250;45.572;38.086;2023-07-31T07:51:03;51.46;19.71
67364;HTU21D;54250;45.572;38.086;2023-07-31T07:53:29;51.53;19.35
67364;HTU21D;54250;45.572;38.086;2023-07-31T07:55:55;50.68;19.94
67364;HTU21D;54250;45.572;38.086;2023-07-31T07:58:21;50.67;20.41
67364;HTU21D;54250;45.572;38.086;2023-07-31T08:00:51;50.73;20.04
67364;HTU21D;54250;45.572;38.086;2023-07-31T08:03:17;50.53;21.05
67364;HTU21D;54250;45.572;38.086;2023-07-31T08:05:44;50.41;20.39
67364;HTU21D;54250;45.572;38.086;2023-07-31T08:08:14;49.97;20.18
67364;HTU21D;54250;45.572;38.086;2023-07-31T08:10:42;49.30;20.76
67364;HTU21D;54250;45.572;38.086;2023-07-31T08:13:09;49.54;20.84
67364;HTU21D;54250;45.572;38.086;2023-07-31T08:15:35;48.68;20.47
67364;HTU21D;54250;45.572;38.086;2023-07-31T08:18:01;48.97;20.79
67364;HTU21D;54250;45.572;38.086;2023-07-31T08:20:27;49.20;19.90
67364;HTU21D;54250;45.572;38.086;2023-07-31T08:22:53;49.01;20.17
67364;HTU21D;54250;45.572;38.086;2023-07-31T08:25:19;48.86;20.11
67364;HTU21D;54250;45.572;38.086;2023-07-31T08:27:45;48.45;21.14
67364;HTU21D;54250;45.572;38.086;2023-07-31T08:30:11;49.10;20.71
67364;HTU21D;54250;45.572;38.086;2023-07-31T08:32:37;49.44;20.60
67364;HTU21D;54250;45.572;38.086;2023-07-31T08:35:03;50.03;20.18
67364;HTU21D;54250;45.572;38.086;2023-07-31T08:37:29;50.30;19.18
67364;HTU21D;54250;45.572;38.086;2023-07-31T08:39:55;48.85;19.82
67364;HTU21D;54250;45.572;38.086;2023-07-31T08:42:21;48.34;19.60
67364;HTU21D;54250;45.572;38.086;2023-07-31T08:44:48;48.67;20.09
67364;HTU21D;54250;45.572;38.086;2023-07-31T08:47:16;47.18;20.95
67364;HTU21D;54250;45.572;38.086;2023-07-31T08:49:42;44.20;23.62
67364;HTU21D;54250;45.572;38.086;2023-07-31T08:52:10;44.76;23.54
67364;HTU21D;54250;45.572;38.086;2023-07-31T08:54:36;45.96;22.56
67364;HTU21D;54250;45.572;38.086;2023-07-31T08:57:02;47.12;22.33
67364;HTU21D;54250;45.572;38.086;2023-07-31T08:59:31;47.79;21.19
67364;HTU21D;54250;45.572;38.086;2023-07-31T09:02:05;47.64;21.66
67364;HTU21D;54250;45.572;38.086;2023-07-31T09:04:34;47.96;21.63
67364;HTU21D;54250;45.572;38.086;2023-07-31T09:07:02;48.30;21.24
67364;HTU21D;54250;45.572;38.086;2023-07-31T09:09:30;47.65;21.69
67364;HTU21D;54250;45.572;38.086;2023-07-31T09:11:57;47.04;21.87
67364;HTU21D;54250;45.572;38.086;2023-07-31T09:14:25;46.63;21.62
67364;HTU21D;54250;45.572;38.086;2023-07-31T09:16:52;46.02;22.68
67364;HTU21D;54250;45.572;38.086;2023-07-31T09:19:27;46.53;22.80
67364;HTU21D;54250;45.572;38.086;2023-07-31T09:21:53;46.80;22.67
67364;HTU21D;54250;45.572;38.086;2023-07-31T09:24:26;47.32;22.72
67364;HTU21D;54250;45.572;38.086;2023-07-31T09:26:54;47.13;21.84
67364;HTU21D;54250;45.572;38.086;2023-07-31T09:29:24;45.70;22.63
67364;HTU21D;54250;45.572;38.086;2023-07-31T09:31:52;44.18;23.59
67364;HTU21D;54250;45.572;38.086;2023-07-31T09:34:19;42.88;25.54
67364;HTU21D;54250;45.572;38.086;2023-07-31T09:36:50;41.61;27.55
67364;HTU21D;54250;45.572;38.086;2023-07-31T09:39:17;40.27;28.66
67364;HTU21D;54250;45.572;38.086;2023-07-31T09:41:46;38.69;29.30
67364;HTU21D;54250;45.572;38.086;2023-07-31T09:44:12;37.46;31.15
67364;HTU21D;54250;45.572;38.086;2023-07-31T09:46:38;36.91;32.97
67364;HTU21D;54250;45.572;38.086;2023-07-31T09:49:09;36.80;32.86
67364;HTU21D;54250;45.572;38.086;2023-07-31T09:51:36;36.48;33.45
67364;HTU21D;54250;45.572;38.086;2023-07-31T09:54:14;35.94;33.63
67364;HTU21D;54250;45.572;38.086;2023-07-31T09:56:43;35.70;33.50
67364;HTU21D;54250;45.572;38.086;2023-07-31T09:59:15;35.54;34.27
67364;HTU21D;54250;45.572;38.086;2023-07-31T10:01:43;35.35;33.89
67364;HTU21D;54250;45.572;38.086;2023-07-31T10:04:10;34.98;34.70
67364;HTU21D;54250;45.572;38.086;2023-07-31T10:06:37;35.03;35.31
67364;HTU21D;54250;45.572;38.086;2023-07-31T10:09:09;35.12;35.78
67364;HTU21D;54250;45.572;38.086;2023-07-31T10:11:41;34.88;35.34
67364;HTU21D;54250;45.572;38.086;2023-07-31T10:14:07;34.46;35.61
67364;HTU21D;54250;45.572;38.086;2023-07-31T10:16:35;34.02;34.89
67364;HTU21D;54250;45.572;38.086;2023-07-31T10:19:01;34.06;34.83
67364;HTU21D;54250;45.572;38.086;2023-07-31T10:21:27;34.09;34.36
67364;HTU21D;54250;45.572;38.086;2023-07-31T10:23:55;34.10;34.90
67364;HTU21D;54250;45.572;38.086;2023-07-31T10:26:23;34.26;34.60
67364;HTU21D;54250;45.572;38.086;2023-07-31T10:28:52;34.39;35.79
67364;HTU21D;54250;45.572;38.086;2023-07-31T10:31:19;34.41;36.04
67364;HTU21D;54250;45.572;38.086;2023-07-31T10:33:45;34.35;35.46
67364;HTU21D;54250;45.572;38.086;2023-07-31T10:36:17;34.36;34.94
67364;HTU21D;54250;45.572;38.086;2023-07-31T10:38:43;34.30;35.66
67364;HTU21D;54250;45.572;38.086;2023-07-31T10:41:10;34.26;35.53
67364;HTU21D;54250;45.572;38.086;2023-07-31T10:43:38;34.33;36.90
67364;HTU21D;54250;45.572;38.086;2023-07-31T10:46:22;34.49;36.01
67364;HTU21D;54250;45.572;38.086;2023-07-31T10:49:00;34.31;35.11
67364;HTU21D;54250;45.572;38.086;2023-07-31T10:51:35;34.16;36.16
67364;HTU21D;54250;45.572;38.086;2023-07-31T10:54:15;34.18;36.64
67364;HTU21D;54250;45.572;38.086;2023-07-31T10:56:46;34.17;35.99
67364;HTU21D;54250;45.572;38.086;2023-07-31T10:59:15;34.12;35.60
67364;HTU21D;54250;45.572;38.086;2023-07-31T11:01:56;33.93;35.23
67364;HTU21D;54250;45.572;38.086;2023-07-31T11:04:29;33.77;35.49
67364;HTU21D;54250;45.572;38.086;2023-07-31T11:06:58;33.72;35.68
67364;HTU21D;54250;45.572;38.086;2023-07-31T11:09:28;33.59;35.63
67364;HTU21D;54250;45.572;38.086;2023-07-31T11:11:55;33.59;35.81
67364;HTU21D;54250;45.572;38.086;2023-07-31T11:14:21;33.60;35.58
67364;HTU21D;54250;45.572;38.086;2023-07-31T11:16:50;33.60;35.47
67364;HTU21D;54250;45.572;38.086;2023-07-31T11:19:26;33.57;35.98
67364;HTU21D;54250;45.572;38.086;2023-07-31T11:21:52;33.45;36.54
67364;HTU21D;54250;45.572;38.086;2023-07-31T11:24:21;33.44;36.82
67364;HTU21D;54250;45.572;38.086;2023-07-31T11:26:51;33.46;36.48
67364;HTU21D;54250;45.572;38.086;2023-07-31T11:29:20;33.45;36.52
67364;HTU21D;54250;45.572;38.086;2023-07-31T11:31:47;33.52;38.52
67364;HTU21D;54250;45.572;38.086;2023-07-31T11:34:14;33.68;37.57
67364;HTU21D;54250;45.572;38.086;2023-07-31T11:36:40;33.75;38.09
67364;HTU21D;54250;45.572;38.086;2023-07-31T11:39:08;33.86;37.77
67364;HTU21D;54250;45.572;38.086;2023-07-31T11:41:34;33.88;37.02
67364;HTU21D;54250;45.572;38.086;2023-07-31T11:44:00;33.82;36.73
67364;HTU21D;54250;45.572;38.086;2023-07-31T11:46:28;33.74;36.47
67364;HTU21D;54250;45.572;38.086;2023-07-31T11:48:59;33.52;36.45
67364;HTU21D;54250;45.572;38.086;2023-07-31T11:51:25;33.46;36.54
67364;HTU21D;54250;45.572;38.086;2023-07-31T11:53:56;33.37;36.63
67364;HTU21D;54250;45.572;38.086;2023-07-31T11:56:24;33.35;37.01
67364;HTU21D;54250;45.572;38.086;2023-07-31T11:58:55;33.33;37.89
67364;HTU21D;54250;45.572;38.086;2023-07-31T12:01:23;33.32;37.79
67364;HTU21D;54250;45.572;38.086;2023-07-31T12:03:50;33.30;37.61
67364;HTU21D;54250;45.572;38.086;2023-07-31T12:06:16;33.20;38.24
67364;HTU21D;54250;45.572;38.086;2023-07-31T12:08:42;33.15;38.22
67364;HTU21D;54250;45.572;38.086;2023-07-31T12:11:09;32.99;38.05
67364;HTU21D;54250;45.572;38.086;2023-07-31T12:13:35;32.94;38.28
67364;HTU21D;54250;45.572;38.086;2023-07-31T12:16:03;32.94;37.98
67364;HTU21D;54250;45.572;38.086;2023-07-31T12:18:33;32.88;37.56
67364;HTU21D;54250;45.572;38.086;2023-07-31T12:21:01;32.82;38.04
67364;HTU21D;54250;45.572;38.086;2023-07-31T12:23:32;32.83;37.82
67364;HTU21D;54250;45.572;38.086;2023-07-31T12:28:28;32.96;37.95
67364;HTU21D;54250;45.572;38.086;2023-07-31T12:30:57;32.98;39.12
67364;HTU21D;54250;45.572;38.086;2023-07-31T12:33:31;33.02;38.53
67364;HTU21D;54250;45.572;38.086;2023-07-31T12:35:57;33.00;38.46
67364;HTU21D;54250;45.572;38.086;2023-07-31T12:38:23;32.98;38.60
67364;HTU21D;54250;45.572;38.086;2023-07-31T12:40:49;32.93;38.03
67364;HTU21D;54250;45.572;38.086;2023-07-31T12:43:15;32.85;38.65
67364;HTU21D;54250;45.572;38.086;2023-07-31T12:45:41;32.84;38.92
67364;HTU21D;54250;45.572;38.086;2023-07-31T12:48:07;32.86;39.64
67364;HTU21D;54250;45.572;38.086;2023-07-31T12:50:33;32.86;39.59
67364;HTU21D;54250;45.572;38.086;2023-07-31T12:53:02;32.77;41.45
67364;HTU21D;54250;45.572;38.086;2023-07-31T12:55:32;32.76;42.01
67364;HTU21D;54250;45.572;38.086;2023-07-31T12:58:00;32.79;40.95
67364;HTU21D;54250;45.572;38.086;2023-07-31T13:00:26;32.76;41.07
67364;HTU21D;54250;45.572;38.086;2023-07-31T13:02:52;32.71;40.63
67364;HTU21D;54250;45.572;38.086;2023-07-31T13:05:18;32.59;40.40
67364;HTU21D;54250;45.572;38.086;2023-07-31T13:07:48;32.45;40.92
67364;HTU21D;54250;45.572;38.086;2023-07-31T13:10:14;32.39;42.40
67364;HTU21D;54250;45.572;38.086;2023-07-31T13:12:40;32.35;43.66
67364;HTU21D;54250;45.572;38.086;2023-07-31T13:15:07;32.26;44.32
67364;HTU21D;54250;45.572;38.086;2023-07-31T13:17:33;32.13;44.04
67364;HTU21D;54250;45.572;38.086;2023-07-31T13:19:59;32.02;44.91
67364;HTU21D;54250;45.572;38.086;2023-07-31T13:22:25;31.99;45.47
67364;HTU21D;54250;45.572;38.086;2023-07-31T13:24:51;31.99;45.48
67364;HTU21D;54250;45.572;38.086;2023-07-31T13:27:17;31.93;45.46
67364;HTU21D;54250;45.572;38.086;2023-07-31T13:29:45;31.87;45.72
67364;HTU21D;54250;45.572;38.086;2023-07-31T13:32:11;31.82;46.17
67364;HTU21D;54250;45.572;38.086;2023-07-31T13:34:37;31.78;46.38
67364;HTU21D;54250;45.572;38.086;2023-07-31T13:37:03;31.74;46.29
67364;HTU21D;54250;45.572;38.086;2023-07-31T13:39:31;31.68;46.59
67364;HTU21D;54250;45.572;38.086;2023-07-31T13:41:59;31.65;46.83
67364;HTU21D;54250;45.572;38.086;2023-07-31T13:44:25;31.65;46.89
67364;HTU21D;54250;45.572;38.086;2023-07-31T13:46:52;31.65;46.89
67364;HTU21D;54250;45.572;38.086;2023-07-31T13:49:18;31.59;47.10
67364;HTU21D;54250;45.572;38.086;2023-07-31T13:51:43;31.53;47.23
67364;HTU21D;54250;45.572;38.086;2023-07-31T13:54:09;31.49;47.25
67364;HTU21D;54250;45.572;38.086;2023-07-31T13:56:37;31.41;47.43
67364;HTU21D;54250;45.572;38.086;2023-07-31T13:59:04;31.35;47.36
67364;HTU21D;54250;45.572;38.086;2023-07-31T14:01:30;31.28;47.55
67364;HTU21D;54250;45.572;38.086;2023-07-31T14:03:56;31.23;47.75
67364;HTU21D;54250;45.572;38.086;2023-07-31T14:06:22;31.16;47.86
67364;HTU21D;54250;45.572;38.086;2023-07-31T14:08:48;31.11;47.89
67364;HTU21D;54250;45.572;38.086;2023-07-31T14:11:14;31.04;48.32
67364;HTU21D;54250;45.572;38.086;2023-07-31T14:13:40;30.98;48.34
67364;HTU21D;54250;45.572;38.086;2023-07-31T14:16:06;30.91;48.53
67364;HTU21D;54250;45.572;38.086;2023-07-31T14:18:32;30.85;48.57
67364;HTU21D;54250;45.572;38.086;2023-07-31T14:20:58;30.82;48.67
67364;HTU21D;54250;45.572;38.086;2023-07-31T14:23:24;30.76;48.79
67364;HTU21D;54250;45.572;38.086;2023-07-31T14:25:50;30.70;49.17
67364;HTU21D;54250;45.572;38.086;2023-07-31T14:28:16;30.65;49.34
67364;HTU21D;54250;45.572;38.086;2023-07-31T14:30:42;30.61;49.57
67364;HTU21D;54250;45.572;38.086;2023-07-31T14:33:08;30.57;49.60
67364;HTU21D;54250;45.572;38.086;2023-07-31T14:35:34;30.53;49.56
67364;HTU21D;54250;45.572;38.086;2023-07-31T14:38:02;30.50;49.53
67364;HTU21D;54250;45.572;38.086;2023-07-31T14:40:28;30.44;49.73
67364;HTU21D;54250;45.572;38.086;2023-07-31T14:42:54;30.39;50.35
67364;HTU21D;54250;45.572;38.086;2023-07-31T14:45:19;30.34;50.76
67364;HTU21D;54250;45.572;38.086;2023-07-31T14:47:45;30.27;50.87
67364;HTU21D;54250;45.572;38.086;2023-07-31T14:50:12;30.18;50.99
67364;HTU21D;54250;45.572;38.086;2023-07-31T14:52:38;30.08;51.27
67364;HTU21D;54250;45.572;38.086;2023-07-31T14:55:04;30.02;51.61
67364;HTU21D;54250;45.572;38.086;2023-07-31T14:57:31;29.95;51.84
67364;HTU21D;54250;45.572;38.086;2023-07-31T14:59:56;29.88;51.91
67364;HTU21D;54250;45.572;38.086;2023-07-31T15:02:22;29.80;52.13
67364;HTU21D;54250;45.572;38.086;2023-07-31T15:04:48;29.72;52.26
67364;HTU21D;54250;45.572;38.086;2023-07-31T15:07:14;29.61;52.55
67364;HTU21D;54250;45.572;38.086;2023-07-31T15:09:40;29.51;52.85
67364;HTU21D;54250;45.572;38.086;2023-07-31T15:12:06;29.44;52.98